Time;durP1;ratioP1;P1;durP2;ratioP2;P2;SDS_P1;SDS_P2;PMS_P1;PMS_P2;Temp;Humidity;BMP_temperature;BMP_pressure;BME280_temperature;BME280_humidity;BME280_pressure;Samples;Min_cycle;Max_cycle;Signal;HPM_P1;HPM_P2
2023/06/26 00:01:50;;;;;;;5.25;4.75;;;26.50;61.40;;;;;;5046725;28;20025;-54
2023/06/26 00:04:15;;;;;;;5.22;4.50;;;26.50;61.50;;;;;;5045294;28;21060;-54
2023/06/26 00:06:41;;;;;;;4.95;4.55;;;26.40;61.60;;;;;;5045294;28;20366;-54
2023/06/26 00:09:07;;;;;;;5.85;4.97;;;26.40;61.60;;;;;;5045092;28;20115;-54
2023/06/26 00:11:33;;;;;;;6.00;5.40;;;26.40;61.60;;;;;;5046556;28;20053;-54
2023/06/26 00:14:02;;;;;;;5.18;4.68;;;26.40;61.70;;;;;;5044948;28;20039;-54
2023/06/26 00:16:27;;;;;;;5.00;4.60;;;26.30;61.90;;;;;;5046344;28;20048;-54
2023/06/26 00:18:53;;;;;;;5.40;4.90;;;26.30;61.90;;;;;;5046412;28;20037;-54
2023/06/26 00:21:19;;;;;;;9.00;4.57;;;26.20;61.90;;;;;;5045222;28;20053;-54
2023/06/26 00:23:45;;;;;;;5.85;4.50;;;26.20;62.00;;;;;;5028352;28;20037;-54
2023/06/26 00:26:11;;;;;;;6.63;5.45;;;26.20;62.20;;;;;;5045112;28;20103;-54
2023/06/26 00:28:36;;;;;;;5.55;5.05;;;26.10;62.20;;;;;;5028351;28;20188;-54
2023/06/26 00:31:02;;;;;;;5.43;4.93;;;26.10;62.40;;;;;;5046517;28;20227;-54
2023/06/26 00:33:28;;;;;;;7.22;4.90;;;26.10;62.50;;;;;;5044961;28;20048;-54
2023/06/26 00:35:53;;;;;;;8.38;4.32;;;26.00;62.60;;;;;;5044835;28;20113;-54
2023/06/26 00:38:19;;;;;;;5.43;4.90;;;26.00;62.70;;;;;;5044788;28;20032;-54
2023/06/26 00:40:44;;;;;;;5.28;4.85;;;25.90;62.80;;;;;;5044347;28;20033;-54
2023/06/26 00:43:10;;;;;;;5.47;5.03;;;25.90;63.00;;;;;;5044498;28;20099;-54
2023/06/26 00:45:35;;;;;;;5.80;5.20;;;25.90;63.10;;;;;;5044724;28;20029;-53
2023/06/26 00:48:01;;;;;;;7.68;5.07;;;25.90;63.10;;;;;;5045898;28;20072;-54
2023/06/26 00:50:27;;;;;;;5.20;4.80;;;25.80;63.10;;;;;;5044574;28;20029;-54
2023/06/26 00:52:54;;;;;;;5.45;4.95;;;25.80;63.20;;;;;;5044504;28;20041;-54
2023/06/26 00:55:20;;;;;;;6.05;4.57;;;25.80;63.30;;;;;;5044367;28;20067;-54
2023/06/26 00:57:45;;;;;;;5.15;4.65;;;25.80;63.30;;;;;;5044240;28;20461;-54
2023/06/26 01:00:12;;;;;;;5.50;5.00;;;25.70;63.30;;;;;;5043640;28;20059;-54
2023/06/26 01:02:38;;;;;;;5.20;4.72;;;25.70;63.50;;;;;;5044352;28;20052;-54
2023/06/26 01:05:06;;;;;;;5.15;4.63;;;25.60;63.60;;;;;;5044419;28;20431;-54
2023/06/26 01:07:36;;;;;;;5.45;5.00;;;25.60;63.70;;;;;;5044168;28;20051;-54
2023/06/26 01:10:03;;;;;;;5.82;5.32;;;25.60;63.70;;;;;;5028008;28;20033;-54
2023/06/26 01:12:28;;;;;;;5.55;4.97;;;25.60;63.70;;;;;;5044376;28;20299;-54
2023/06/26 01:14:54;;;;;;;5.50;5.00;;;25.50;64.50;;;;;;5043962;28;20037;-54
2023/06/26 01:17:19;;;;;;;5.63;5.13;;;25.50;63.90;;;;;;5043997;28;20021;-54
2023/06/26 01:19:45;;;;;;;6.20;5.60;;;25.50;64.10;;;;;;5044088;28;20044;-54
2023/06/26 01:22:27;;;;;;;5.65;5.13;;;25.40;64.10;;;;;;5043872;28;20466;-54
2023/06/26 01:25:17;;;;;;;5.47;4.97;;;25.40;64.20;;;;;;5043994;28;20040;-54
2023/06/26 01:27:45;;;;;;;5.65;4.88;;;25.40;64.30;;;;;;5027774;28;20025;-54
2023/06/26 01:30:11;;;;;;;5.25;4.72;;;25.40;64.60;;;;;;5043827;28;20139;-54
2023/06/26 01:32:36;;;;;;;8.75;5.15;;;25.30;64.70;;;;;;5027236;28;20124;-54
2023/06/26 01:35:02;;;;;;;6.60;4.93;;;25.30;64.80;;;;;;5043957;28;20056;-54
2023/06/26 01:37:28;;;;;;;6.22;5.20;;;25.20;64.70;;;;;;5045455;28;20033;-53
2023/06/26 01:39:53;;;;;;;5.35;4.85;;;25.20;64.80;;;;;;5044347;28;20037;-54
2023/06/26 01:42:19;;;;;;;5.20;4.65;;;25.20;64.90;;;;;;5044793;28;20040;-54
2023/06/26 01:44:45;;;;;;;5.55;5.05;;;25.20;64.90;;;;;;5043298;28;20040;-54
2023/06/26 01:47:14;;;;;;;6.45;5.25;;;25.10;65.10;;;;;;5043384;28;20033;-57
2023/06/26 01:49:39;;;;;;;5.97;5.32;;;25.10;65.10;;;;;;5043341;28;20033;-58
2023/06/26 01:52:19;;;;;;;5.85;5.25;;;25.10;65.30;;;;;;5044982;28;20049;-57
2023/06/26 01:55:11;;;;;;;6.72;5.45;;;25.00;65.40;;;;;;5043087;28;20048;-57
2023/06/26 01:57:36;;;;;;;5.97;5.35;;;25.00;65.70;;;;;;5043218;28;20073;-57
2023/06/26 02:00:02;;;;;;;5.57;4.85;;;24.90;65.70;;;;;;5009880;28;20037;-58
2023/06/26 02:02:31;;;;;;;5.20;4.80;;;24.90;65.70;;;;;;5044685;28;20025;-56
2023/06/26 02:04:56;;;;;;;7.65;4.80;;;24.90;65.90;;;;;;5044203;28;20037;-58
2023/06/26 02:07:22;;;;;;;5.53;5.03;;;24.90;66.00;;;;;;5043302;28;20457;-57
2023/06/26 02:09:47;;;;;;;5.32;4.93;;;24.80;66.20;;;;;;5043458;28;20033;-57
2023/06/26 02:12:13;;;;;;;5.30;4.80;;;24.80;66.20;;;;;;5043912;28;20454;-57
2023/06/26 02:14:38;;;;;;;5.28;4.78;;;24.80;66.30;;;;;;5044005;28;20052;-57
2023/06/26 02:17:04;;;;;;;5.60;5.10;;;24.80;66.40;;;;;;5043309;28;20029;-57
2023/06/26 02:19:30;;;;;;;5.88;5.30;;;24.70;66.50;;;;;;5043157;28;20083;-58
2023/06/26 02:21:55;;;;;;;5.80;5.30;;;24.70;66.60;;;;;;5043707;28;20025;-58
2023/06/26 02:24:21;;;;;;;6.68;4.93;;;24.70;66.70;;;;;;5043161;28;20184;-58
2023/06/26 02:26:46;;;;;;;5.00;4.57;;;24.60;66.90;;;;;;5044511;28;20112;-58
2023/06/26 02:29:12;;;;;;;5.13;4.55;;;24.60;67.00;;;;;;5044419;28;20052;-57
2023/06/26 02:31:37;;;;;;;7.65;5.05;;;24.60;67.70;;;;;;5026321;28;20029;-57
2023/06/26 02:34:03;;;;;;;6.30;5.28;;;24.50;67.70;;;;;;5026425;28;20034;-57
2023/06/26 02:36:29;;;;;;;8.50;5.63;;;24.50;68.10;;;;;;5042991;28;20087;-58
2023/06/26 02:38:55;;;;;;;5.82;5.32;;;24.50;68.30;;;;;;5042889;28;20034;-57
2023/06/26 02:41:20;;;;;;;7.15;5.68;;;24.50;68.50;;;;;;5043916;28;20041;-58
2023/06/26 02:43:46;;;;;;;5.55;4.93;;;24.40;68.50;;;;;;5042916;28;20025;-57
2023/06/26 02:46:11;;;;;;;5.80;5.30;;;24.40;68.50;;;;;;5026339;28;20037;-58
2023/06/26 02:48:37;;;;;;;6.47;4.88;;;24.40;69.30;;;;;;5026313;28;20033;-57
2023/06/26 02:51:02;;;;;;;5.78;5.18;;;24.40;68.80;;;;;;5044135;28;20029;-57
2023/06/26 02:53:28;;;;;;;5.82;5.30;;;24.40;69.00;;;;;;5042964;28;20063;-57
2023/06/26 02:55:53;;;;;;;5.72;5.05;;;24.40;69.30;;;;;;5026277;28;20041;-57
2023/06/26 02:58:19;;;;;;;5.82;5.22;;;24.30;69.40;;;;;;5044587;28;20083;-58
2023/06/26 03:00:45;;;;;;;6.32;5.40;;;24.30;69.60;;;;;;5044177;28;20064;-58
2023/06/26 03:03:10;;;;;;;5.15;4.65;;;24.20;70.00;;;;;;5043712;28;20037;-57
2023/06/26 03:05:36;;;;;;;6.25;5.20;;;24.20;70.00;;;;;;5042752;28;20033;-57
2023/06/26 03:08:04;;;;;;;5.65;5.15;;;24.20;70.10;;;;;;5043564;28;20096;-57
2023/06/26 03:10:30;;;;;;;5.47;4.97;;;24.20;70.30;;;;;;5042650;28;20078;-56
2023/06/26 03:12:56;;;;;;;5.47;5.07;;;24.20;70.60;;;;;;5042576;28;20066;-57
2023/06/26 03:15:21;;;;;;;5.32;4.82;;;24.20;70.80;;;;;;5042031;28;20052;-58
2023/06/26 03:17:47;;;;;;;5.75;5.20;;;24.10;70.90;;;;;;5043673;28;20056;-58
2023/06/26 03:20:12;;;;;;;5.82;5.22;;;24.10;70.80;;;;;;5043807;28;20029;-58
2023/06/26 03:22:38;;;;;;;5.50;4.97;;;24.10;70.80;;;;;;5042969;28;20021;-57
2023/06/26 03:25:04;;;;;;;5.88;5.38;;;24.00;70.90;;;;;;5047707;28;20053;-58
2023/06/26 03:27:30;;;;;;;5.95;5.22;;;24.00;71.20;;;;;;5047501;28;20037;-57
2023/06/26 03:29:55;;;;;;;6.40;5.80;;;24.00;71.30;;;;;;5047168;28;20033;-57
2023/06/26 03:32:21;;;;;;;5.47;4.97;;;24.00;71.30;;;;;;5046156;28;20026;-58
2023/06/26 03:34:47;;;;;;;6.45;5.72;;;24.00;71.30;;;;;;5046117;28;20072;-57
2023/06/26 03:37:12;;;;;;;5.30;4.80;;;23.90;71.30;;;;;;5047272;28;20026;-57
2023/06/26 03:39:38;;;;;;;6.18;5.50;;;23.90;71.30;;;;;;5045851;28;20116;-57
2023/06/26 03:42:03;;;;;;;6.47;5.18;;;23.90;71.40;;;;;;5045807;28;20032;-57
2023/06/26 03:44:29;;;;;;;7.03;5.55;;;23.80;71.80;;;;;;5047150;28;20033;-57
2023/06/26 03:46:55;;;;;;;5.50;5.00;;;23.80;71.90;;;;;;5047080;28;20029;-57
2023/06/26 03:49:20;;;;;;;5.65;5.15;;;23.80;71.90;;;;;;5045631;28;20045;-57
2023/06/26 03:51:46;;;;;;;6.65;5.82;;;23.80;71.90;;;;;;5045934;28;20025;-58
2023/06/26 03:54:11;;;;;;;6.80;5.70;;;23.80;71.90;;;;;;5045607;28;20477;-57
2023/06/26 03:56:37;;;;;;;6.60;5.90;;;23.80;72.00;;;;;;5046872;28;20025;-57
2023/06/26 03:59:03;;;;;;;5.97;5.38;;;23.70;72.00;;;;;;5046827;28;20087;-57
2023/06/26 04:01:28;;;;;;;6.30;5.57;;;23.70;72.10;;;;;;5047065;28;20044;-57
2023/06/26 04:03:54;;;;;;;6.60;5.75;;;23.70;72.20;;;;;;5045598;28;20025;-57
2023/06/26 04:06:19;;;;;;;6.30;5.70;;;23.70;72.30;;;;;;5045381;28;20033;-56
2023/06/26 04:08:45;;;;;;;5.65;5.15;;;23.70;72.40;;;;;;5045294;28;20028;-57
2023/06/26 04:11:10;;;;;;;5.85;5.35;;;23.70;72.60;;;;;;5045048;28;20041;-57
2023/06/26 04:13:36;;;;;;;5.72;5.13;;;23.60;72.70;;;;;;5045477;28;20343;-57
2023/06/26 04:16:02;;;;;;;7.90;5.88;;;23.60;72.80;;;;;;5045213;28;20065;-58
2023/06/26 04:18:27;;;;;;;5.80;5.30;;;23.60;72.80;;;;;;5045241;28;20021;-57
2023/06/26 04:21:12;;;;;;;5.93;5.32;;;23.60;73.00;;;;;;5046545;28;20095;-58
2023/06/26 04:23:38;;;;;;;5.80;5.20;;;23.60;73.00;;;;;;5045343;28;20025;-57
2023/06/26 04:26:04;;;;;;;8.13;5.75;;;23.50;72.90;;;;;;5045156;28;20061;-57
2023/06/26 04:28:31;;;;;;;9.57;5.93;;;23.50;72.80;;;;;;5046424;28;20040;-57
2023/06/26 04:30:57;;;;;;;6.05;5.45;;;23.50;73.00;;;;;;5045191;28;20132;-57
2023/06/26 04:33:23;;;;;;;5.88;5.38;;;23.50;73.10;;;;;;5044283;28;20037;-58
2023/06/26 04:35:49;;;;;;;7.53;5.93;;;23.50;73.20;;;;;;5043906;28;20164;-57
2023/06/26 04:38:15;;;;;;;9.13;6.05;;;23.50;73.20;;;;;;5046175;28;20049;-57
2023/06/26 04:40:41;;;;;;;6.07;5.57;;;23.40;73.30;;;;;;5044665;28;20033;-57
2023/06/26 04:43:06;;;;;;;8.05;5.95;;;23.40;73.30;;;;;;5044658;28;20025;-57
2023/06/26 04:45:32;;;;;;;7.35;5.80;;;23.40;73.30;;;;;;5044706;28;20041;-57
2023/06/26 04:47:57;;;;;;;5.95;5.45;;;23.40;73.60;;;;;;5045927;28;20033;-57
2023/06/26 04:50:23;;;;;;;6.35;5.70;;;23.40;73.70;;;;;;5045844;28;20037;-57
2023/06/26 04:52:48;;;;;;;6.70;5.90;;;23.40;73.70;;;;;;5044396;28;20051;-56
2023/06/26 04:55:14;;;;;;;6.10;5.50;;;23.40;73.60;;;;;;5044379;28;20091;-56
2023/06/26 04:57:39;;;;;;;8.48;5.72;;;23.40;73.70;;;;;;5044341;28;20060;-57
2023/06/26 05:00:10;;;;;;;6.05;5.45;;;23.40;73.80;;;;;;5045762;28;20096;-57
2023/06/26 05:02:36;;;;;;;8.50;6.05;;;23.40;73.90;;;;;;5045924;28;20150;-56
2023/06/26 05:05:02;;;;;;;6.32;5.70;;;23.40;74.00;;;;;;5045755;28;20129;-57
2023/06/26 05:07:27;;;;;;;8.13;5.85;;;23.40;74.20;;;;;;5045608;28;20033;-57
2023/06/26 05:09:53;;;;;;;10.82;6.30;;;23.40;74.90;;;;;;5044216;28;20045;-57
2023/06/26 05:12:18;;;;;;;12.10;6.28;;;23.40;74.20;;;;;;5027516;28;20033;-57
2023/06/26 05:14:45;;;;;;;13.90;6.10;;;23.40;74.20;;;;;;5043955;28;20047;-56
2023/06/26 05:17:10;;;;;;;8.25;6.20;;;23.40;75.00;;;;;;5044041;28;20026;-56
2023/06/26 05:19:36;;;;;;;7.57;6.05;;;23.40;74.50;;;;;;5045479;28;20109;-56
2023/06/26 05:22:06;;;;;;;7.63;6.32;;;23.40;74.50;;;;;;5043749;28;20021;-57
2023/06/26 05:24:32;;;;;;;9.27;6.15;;;23.40;74.50;;;;;;5027855;28;20030;-56
2023/06/26 05:26:58;;;;;;;12.15;6.07;;;23.40;74.70;;;;;;5043854;28;20029;-57
2023/06/26 05:29:24;;;;;;;9.23;6.13;;;23.30;74.70;;;;;;5045238;28;20490;-56
2023/06/26 05:31:49;;;;;;;9.07;5.95;;;23.30;74.80;;;;;;5045275;28;20529;-56
2023/06/26 05:34:15;;;;;;;17.38;5.85;;;23.30;74.70;;;;;;5043657;28;20033;-57
2023/06/26 05:36:43;;;;;;;11.98;6.18;;;23.40;74.80;;;;;;5044086;28;20037;-57
2023/06/26 05:39:09;;;;;;;8.43;6.05;;;23.30;74.80;;;;;;5043590;28;20017;-56
2023/06/26 05:41:34;;;;;;;9.80;6.13;;;23.30;74.80;;;;;;5043668;28;20073;-56
2023/06/26 05:44:00;;;;;;;7.93;5.72;;;23.30;74.90;;;;;;5045313;28;20085;-56
2023/06/26 05:46:25;;;;;;;8.40;6.25;;;23.40;74.90;;;;;;5043450;28;20094;-56
2023/06/26 05:48:51;;;;;;;6.82;6.10;;;23.40;74.90;;;;;;5043377;28;20171;-57
2023/06/26 05:51:17;;;;;;;9.52;6.15;;;23.40;74.90;;;;;;5043265;28;20033;-56
2023/06/26 05:53:43;;;;;;;13.93;6.70;;;23.40;75.00;;;;;;5045007;28;20411;-57
2023/06/26 05:56:09;;;;;;;8.80;6.05;;;23.40;75.60;;;;;;5044994;28;20037;-56
2023/06/26 05:58:36;;;;;;;13.73;6.50;;;23.30;75.50;;;;;;5043728;28;20030;-56
2023/06/26 06:01:01;;;;;;;11.23;6.55;;;23.40;76.30;;;;;;5043259;28;20033;-56
2023/06/26 06:03:27;;;;;;;14.88;6.93;;;23.40;76.30;;;;;;5044682;28;20037;-57
2023/06/26 06:05:52;;;;;;;10.88;6.60;;;23.40;76.40;;;;;;5044704;28;20044;-57
2023/06/26 06:08:18;;;;;;;9.05;6.55;;;23.40;76.50;;;;;;5044673;28;20026;-56
2023/06/26 06:10:43;;;;;;;9.75;6.47;;;23.40;76.50;;;;;;5043371;28;20061;-56
2023/06/26 06:13:09;;;;;;;11.38;6.85;;;23.40;76.50;;;;;;5043224;28;20026;-57
2023/06/26 06:15:34;;;;;;;11.70;6.40;;;23.40;76.70;;;;;;5043110;28;20088;-57
2023/06/26 06:18:00;;;;;;;11.35;6.60;;;23.40;77.00;;;;;;5044563;28;20147;-56
2023/06/26 06:20:25;;;;;;;14.10;6.53;;;23.40;77.30;;;;;;5043020;28;20029;-57
2023/06/26 06:22:51;;;;;;;8.07;6.13;;;23.40;77.00;;;;;;5042595;28;20026;-57
2023/06/26 06:25:16;;;;;;;11.65;6.68;;;23.40;76.90;;;;;;5044348;28;20094;-56
2023/06/26 06:27:43;;;;;;;8.48;6.05;;;23.40;77.20;;;;;;5043697;28;20378;-57
2023/06/26 06:30:09;;;;;;;16.70;6.78;;;23.50;77.50;;;;;;5043321;28;20056;-56
2023/06/26 06:32:35;;;;;;;10.88;7.32;;;23.50;77.70;;;;;;5044323;28;20111;-56
2023/06/26 06:35:04;;;;;;;18.33;7.53;;;23.50;77.70;;;;;;5044378;28;20042;-57
2023/06/26 06:37:31;;;;;;;10.93;6.18;;;23.50;77.80;;;;;;5044168;28;20508;-57
2023/06/26 06:39:58;;;;;;;13.68;7.40;;;23.50;77.30;;;;;;5026582;28;20092;-57
2023/06/26 06:42:23;;;;;;;8.75;6.22;;;23.50;77.70;;;;;;5044276;28;20037;-56
2023/06/26 06:44:49;;;;;;;17.85;6.43;;;23.50;78.20;;;;;;5044207;28;20038;-57
2023/06/26 06:47:14;;;;;;;8.23;6.00;;;23.60;77.80;;;;;;5044211;28;20025;-56
2023/06/26 06:49:40;;;;;;;8.82;6.85;;;23.50;77.30;;;;;;5044188;28;20037;-56
2023/06/26 06:52:05;;;;;;;12.02;7.00;;;23.50;77.50;;;;;;5044130;28;20046;-57
2023/06/26 06:54:31;;;;;;;16.08;6.90;;;23.60;78.00;;;;;;5043950;28;20040;-57
2023/06/26 06:56:56;;;;;;;13.35;6.65;;;23.60;77.80;;;;;;5042552;28;20028;-57
2023/06/26 06:59:22;;;;;;;17.73;7.70;;;23.60;78.10;;;;;;5046328;28;20061;-57
2023/06/26 07:01:47;;;;;;;15.73;8.13;;;23.60;77.60;;;;;;5046705;28;20014;-57
2023/06/26 07:04:13;;;;;;;16.17;7.82;;;23.60;77.80;;;;;;5043955;28;20018;-56
2023/06/26 07:06:38;;;;;;;33.67;7.93;;;23.70;77.80;;;;;;5046501;28;20399;-57
2023/06/26 07:09:05;;;;;;;30.55;8.45;;;23.70;77.50;;;;;;5046495;28;20081;-56
2023/06/26 07:11:31;;;;;;;19.23;7.63;;;23.70;77.60;;;;;;5043587;28;20394;-57
2023/06/26 07:13:56;;;;;;;22.70;7.53;;;23.80;77.70;;;;;;5033953;28;20049;-57
2023/06/26 07:16:22;;;;;;;29.85;8.30;;;23.80;77.60;;;;;;5040330;28;20095;-56
2023/06/26 07:18:49;;;;;;;78.30;11.60;;;23.90;78.10;;;;;;5037746;28;20041;-57
2023/06/26 07:21:15;;;;;;;69.57;13.48;;;24.00;78.20;;;;;;5064189;28;20025;-56
2023/06/26 07:23:40;;;;;;;36.92;9.23;;;24.10;77.80;;;;;;5063881;28;20021;-57
2023/06/26 07:26:06;;;;;;;38.50;8.73;;;24.10;77.20;;;;;;5067065;28;20032;-56
2023/06/26 07:28:31;;;;;;;39.88;9.13;;;24.20;75.90;;;;;;5066187;28;20032;-56
2023/06/26 07:30:57;;;;;;;31.45;8.73;;;24.20;75.70;;;;;;5065643;28;20084;-57
2023/06/26 07:33:22;;;;;;;32.47;7.57;;;24.20;75.20;;;;;;5065540;28;20075;-57
2023/06/26 07:35:48;;;;;;;28.30;8.10;;;24.20;74.70;;;;;;5066870;28;20041;-56
2023/06/26 07:38:13;;;;;;;26.33;8.02;;;24.20;74.40;;;;;;5066967;28;20028;-57
2023/06/26 07:40:39;;;;;;;34.85;9.00;;;24.20;74.20;;;;;;5065613;28;20037;-57
2023/06/26 07:43:04;;;;;;;42.60;8.80;;;24.20;73.90;;;;;;5064132;28;20029;-56
2023/06/26 07:45:30;;;;;;;28.52;8.48;;;24.20;73.90;;;;;;5036645;28;20087;-56
2023/06/26 07:47:55;;;;;;;23.20;7.35;;;24.20;73.60;;;;;;5027205;28;20439;-56
2023/06/26 07:50:22;;;;;;;32.25;7.63;;;24.30;73.50;;;;;;5055822;28;20030;-57
2023/06/26 07:52:48;;;;;;;31.65;7.32;;;24.30;73.20;;;;;;5045953;28;20064;-56
2023/06/26 07:55:14;;;;;;;20.20;7.07;;;24.40;73.00;;;;;;5044483;28;20026;-56
2023/06/26 07:57:39;;;;;;;15.27;7.20;;;24.40;72.70;;;;;;5044748;28;20033;-56
2023/06/26 08:00:08;;;;;;;14.20;6.53;;;24.50;72.50;;;;;;5033874;28;20026;-56
2023/06/26 08:02:34;;;;;;;16.17;7.20;;;24.50;72.30;;;;;;5041762;28;20026;-56
2023/06/26 08:04:59;;;;;;;20.60;6.72;;;24.50;72.20;;;;;;5027572;28;20041;-56
2023/06/26 08:07:25;;;;;;;14.20;6.43;;;24.50;72.30;;;;;;5054031;28;20445;-56
2023/06/26 08:09:51;;;;;;;21.85;7.75;;;24.60;72.10;;;;;;5037121;28;20484;-56
2023/06/26 08:12:16;;;;;;;25.77;6.53;;;24.60;72.20;;;;;;5041846;28;20026;-57
2023/06/26 08:14:42;;;;;;;20.10;6.78;;;24.60;72.20;;;;;;5043348;28;20397;-56
2023/06/26 08:17:07;;;;;;;11.25;6.25;;;24.70;72.20;;;;;;5028945;28;20034;-56
2023/06/26 08:19:33;;;;;;;20.27;6.20;;;24.60;72.20;;;;;;5025990;28;20135;-53
2023/06/26 08:21:58;;;;;;;16.20;6.55;;;24.70;72.30;;;;;;5037362;28;20036;-54
2023/06/26 08:24:24;;;;;;;21.85;6.82;;;24.70;72.20;;;;;;5045987;28;20116;-54
2023/06/26 08:26:49;;;;;;;34.70;8.07;;;24.70;72.20;;;;;;5035119;28;20040;-54
2023/06/26 08:29:15;;;;;;;19.52;7.38;;;24.80;72.10;;;;;;5049802;28;20033;-52
2023/06/26 08:31:41;;;;;;;17.40;7.18;;;24.80;71.90;;;;;;5034607;28;20048;-54
2023/06/26 08:34:07;;;;;;;26.25;7.82;;;24.90;71.80;;;;;;5042812;28;20037;-54
2023/06/26 08:36:33;;;;;;;19.38;7.47;;;24.90;71.80;;;;;;5037226;28;20029;-54
2023/06/26 08:38:58;;;;;;;20.17;7.43;;;25.00;71.70;;;;;;5053017;28;20497;-54
2023/06/26 08:41:24;;;;;;;39.53;7.50;;;25.00;71.60;;;;;;5045428;28;20029;-54
2023/06/26 08:43:53;;;;;;;19.48;8.05;;;25.00;71.50;;;;;;5044262;28;20018;-54
2023/06/26 08:46:19;;;;;;;27.33;6.72;;;25.00;71.60;;;;;;5041134;28;20111;-54
2023/06/26 08:48:48;;;;;;;23.50;8.15;;;25.10;71.20;;;;;;5045665;28;20021;-54
2023/06/26 08:51:15;;;;;;;23.65;7.15;;;25.10;71.00;;;;;;5043918;28;20040;-54
2023/06/26 08:53:51;;;;;;;25.17;8.25;;;25.20;70.70;;;;;;5028580;28;20052;-54
2023/06/26 08:56:18;;;;;;;39.53;9.40;;;25.20;70.60;;;;;;5036525;28;20034;-53
2023/06/26 08:58:44;;;;;;;48.90;11.13;;;25.20;70.60;;;;;;5025989;28;20033;-54
2023/06/26 09:01:09;;;;;;;43.03;9.88;;;25.30;70.40;;;;;;5039959;28;20108;-54
2023/06/26 09:03:35;;;;;;;48.60;10.43;;;25.30;70.10;;;;;;5042405;28;20045;-53
2023/06/26 09:06:01;;;;;;;60.17;10.95;;;25.40;70.10;;;;;;5027220;28;20093;-54
2023/06/26 09:08:26;;;;;;;44.22;9.23;;;25.40;69.90;;;;;;5022651;28;20122;-53
2023/06/26 09:10:52;;;;;;;26.15;8.32;;;25.40;69.80;;;;;;5033315;28;20067;-54
2023/06/26 09:13:18;;;;;;;22.55;8.27;;;25.40;69.30;;;;;;5035056;28;20119;-54
2023/06/26 09:15:44;;;;;;;30.80;8.77;;;25.50;69.40;;;;;;5034444;28;20044;-54
2023/06/26 09:18:09;;;;;;;35.47;8.88;;;25.60;69.60;;;;;;5037864;28;20030;-54
2023/06/26 09:20:35;;;;;;;29.08;8.48;;;25.60;69.50;;;;;;5042926;28;20029;-53
2023/06/26 09:23:02;;;;;;;32.78;9.10;;;25.70;69.20;;;;;;5016179;28;20033;-54
2023/06/26 09:25:27;;;;;;;68.80;13.40;;;25.70;69.10;;;;;;5036734;28;20030;-54
2023/06/26 09:27:53;;;;;;;37.92;8.98;;;25.70;68.90;;;;;;5022407;28;20476;-54
2023/06/26 09:30:19;;;;;;;44.50;8.85;;;25.80;68.70;;;;;;5041459;28;20084;-54
2023/06/26 09:32:44;;;;;;;33.83;8.00;;;25.80;68.70;;;;;;5039421;28;20049;-52
2023/06/26 09:35:10;;;;;;;64.05;12.23;;;25.80;68.60;;;;;;5043807;28;20029;-54
2023/06/26 09:37:36;;;;;;;49.25;10.20;;;25.80;68.40;;;;;;5044687;28;20029;-54
2023/06/26 09:40:01;;;;;;;58.42;11.05;;;25.90;68.50;;;;;;5042753;28;20029;-54
2023/06/26 09:42:27;;;;;;;44.42;9.00;;;25.90;68.80;;;;;;5043361;28;20089;-54
2023/06/26 09:44:53;;;;;;;34.17;8.30;;;25.90;67.90;;;;;;5044226;28;20029;-54
2023/06/26 09:47:19;;;;;;;41.65;8.70;;;26.00;67.60;;;;;;5042839;28;20025;-54
2023/06/26 09:49:45;;;;;;;30.42;8.40;;;26.00;67.40;;;;;;5025425;28;20038;-54
2023/06/26 09:52:19;;;;;;;33.38;8.93;;;26.00;67.20;;;;;;5044776;28;20045;-54
2023/06/26 09:54:47;;;;;;;26.27;7.75;;;26.00;66.90;;;;;;5043102;28;20060;-54
2023/06/26 09:57:13;;;;;;;30.38;7.00;;;26.10;67.00;;;;;;5042749;28;20030;-54
2023/06/26 09:59:44;;;;;;;24.48;6.85;;;26.10;66.80;;;;;;5042217;28;20481;-54
2023/06/26 10:02:10;;;;;;;32.28;7.43;;;26.10;66.80;;;;;;5043828;28;20033;-55
2023/06/26 10:04:36;;;;;;;34.42;7.60;;;26.20;66.90;;;;;;5044070;28;20136;-54
2023/06/26 10:07:06;;;;;;;24.92;7.30;;;26.20;66.90;;;;;;5042381;28;20097;-54
2023/06/26 10:09:31;;;;;;;28.70;6.60;;;26.20;66.90;;;;;;5022339;28;20044;-54
2023/06/26 10:11:59;;;;;;;19.17;6.53;;;26.30;66.70;;;;;;5040251;28;20108;-53
2023/06/26 10:14:30;;;;;;;31.90;8.15;;;26.50;66.50;;;;;;5043325;28;20039;-54
2023/06/26 10:16:58;;;;;;;34.97;9.15;;;26.40;66.40;;;;;;5024670;28;20040;-54
2023/06/26 10:19:26;;;;;;;30.35;7.57;;;26.40;66.20;;;;;;5067507;28;20033;-54
2023/06/26 10:21:54;;;;;;;25.63;7.03;;;26.50;66.20;;;;;;5039805;28;20025;-54
2023/06/26 10:24:21;;;;;;;16.85;6.55;;;26.50;65.80;;;;;;5043653;28;20026;-54
2023/06/26 10:26:46;;;;;;;18.58;6.88;;;26.50;65.10;;;;;;5046973;28;20486;-54
2023/06/26 10:29:13;;;;;;;41.05;9.05;;;26.60;64.80;;;;;;5051409;28;20021;-54
2023/06/26 10:31:39;;;;;;;25.13;7.32;;;26.60;65.10;;;;;;5056099;28;20176;-54
2023/06/26 10:34:04;;;;;;;31.65;7.45;;;26.70;65.00;;;;;;5056723;28;20092;-54
2023/06/26 10:36:31;;;;;;;19.10;7.38;;;26.70;64.60;;;;;;5048567;28;20060;-54
2023/06/26 10:38:58;;;;;;;33.95;9.02;;;26.80;64.10;;;;;;5053938;28;20053;-54
2023/06/26 10:41:24;;;;;;;43.67;9.05;;;26.80;64.20;;;;;;5049401;28;20675;-53
2023/06/26 10:44:11;;;;;;;45.58;8.73;;;27.00;64.30;;;;;;5055438;28;20062;-54
2023/06/26 10:46:53;;;;;;;27.73;7.80;;;27.00;64.20;;;;;;5047274;28;20044;-54
2023/06/26 10:49:25;;;;;;;22.02;6.85;;;27.00;64.00;;;;;;5049216;28;20037;-54
2023/06/26 10:51:51;;;;;;;24.42;6.90;;;27.10;63.60;;;;;;5057405;28;20068;-54
2023/06/26 10:54:18;;;;;;;29.27;8.02;;;27.20;63.40;;;;;;5043430;28;20257;-54
2023/06/26 10:56:44;;;;;;;20.90;6.80;;;27.30;63.40;;;;;;5032174;28;20032;-54
2023/06/26 10:59:20;;;;;;;22.88;7.20;;;27.30;63.10;;;;;;5045179;28;20021;-54
2023/06/26 11:01:59;;;;;;;31.27;9.00;;;27.40;62.50;;;;;;5036633;28;20200;-54
2023/06/26 11:04:47;;;;;;;25.08;8.10;;;27.50;62.70;;;;;;5055375;28;20032;-54
2023/06/26 11:07:20;;;;;;;40.40;7.90;;;27.60;62.40;;;;;;5062161;28;20144;-54
2023/06/26 11:10:08;;;;;;;38.05;8.50;;;27.70;62.20;;;;;;5059032;28;20072;-54
2023/06/26 11:12:36;;;;;;;34.25;8.55;;;27.80;62.20;;;;;;5063786;28;20052;-53
2023/06/26 11:15:12;;;;;;;44.70;9.93;;;27.90;61.80;;;;;;5051072;28;20143;-54
2023/06/26 11:17:38;;;;;;;39.78;10.27;;;28.00;61.80;;;;;;5037254;28;20032;-54
2023/06/26 11:20:07;;;;;;;75.68;12.85;;;28.10;61.70;;;;;;5058498;28;20065;-54
2023/06/26 11:22:37;;;;;;;44.17;10.32;;;28.20;61.60;;;;;;5056259;28;20048;-54
2023/06/26 11:25:03;;;;;;;39.00;9.00;;;28.30;61.40;;;;;;5061054;28;20036;-54
2023/06/26 11:27:38;;;;;;;32.78;8.32;;;28.40;61.40;;;;;;5046324;28;20102;-54
2023/06/26 11:30:08;;;;;;;34.78;8.35;;;28.40;61.30;;;;;;5051471;28;20056;-54
2023/06/26 11:32:33;;;;;;;29.08;7.72;;;28.50;61.20;;;;;;5037489;28;20469;-54
2023/06/26 11:34:59;;;;;;;24.88;7.55;;;28.60;60.90;;;;;;5064565;28;20088;-54
2023/06/26 11:37:25;;;;;;;26.20;7.57;;;28.70;61.20;;;;;;5054189;28;20108;-54
2023/06/26 11:39:53;;;;;;;31.25;7.47;;;28.80;60.50;;;;;;5052229;28;20029;-54
2023/06/26 11:42:19;;;;;;;22.90;6.68;;;28.90;61.20;;;;;;5047967;28;20025;-54
2023/06/26 11:44:45;;;;;;;24.75;6.93;;;29.10;61.20;;;;;;5046083;28;20053;-54
2023/06/26 11:47:17;;;;;;;12.55;5.90;;;29.20;61.40;;;;;;5030993;28;20045;-53
2023/06/26 11:49:44;;;;;;;19.25;6.32;;;29.30;61.70;;;;;;5046431;28;20034;-53
2023/06/26 11:52:10;;;;;;;15.15;6.43;;;29.50;61.90;;;;;;5039442;28;20036;-54
2023/06/26 11:54:35;;;;;;;14.23;6.70;;;29.60;61.80;;;;;;5044981;28;20042;-54
2023/06/26 11:57:01;;;;;;;15.77;6.53;;;29.70;61.90;;;;;;5047101;28;20504;-54
2023/06/26 11:59:37;;;;;;;18.23;6.70;;;29.80;61.90;;;;;;5040211;28;20029;-54
2023/06/26 12:02:06;;;;;;;22.13;7.75;;;29.90;62.10;;;;;;5047399;28;20021;-54
2023/06/26 12:04:32;;;;;;;18.50;6.30;;;30.00;62.10;;;;;;5036985;28;20033;-54
2023/06/26 12:06:57;;;;;;;28.85;6.82;;;30.10;62.20;;;;;;5042432;28;20500;-54
2023/06/26 12:09:23;;;;;;;19.45;5.97;;;30.20;62.40;;;;;;5027344;28;20041;-54
2023/06/26 12:11:52;;;;;;;12.40;6.60;;;30.30;62.50;;;;;;5043271;28;20041;-54
2023/06/26 12:14:18;;;;;;;21.92;7.80;;;30.30;62.50;;;;;;5026493;28;20025;-54
2023/06/26 12:16:43;;;;;;;12.85;6.68;;;30.30;62.60;;;;;;5044848;28;20029;-54
2023/06/26 12:19:09;;;;;;;19.92;6.65;;;30.30;62.80;;;;;;5053971;28;20030;-51
2023/06/26 12:21:37;;;;;;;15.05;6.55;;;30.30;62.90;;;;;;5041146;28;20352;-54
2023/06/26 12:24:04;;;;;;;19.90;6.70;;;30.30;62.90;;;;;;5044906;28;20082;-54
2023/06/26 12:26:29;;;;;;;18.50;7.38;;;30.30;63.00;;;;;;5044690;28;20033;-54
2023/06/26 12:29:17;;;;;;;24.75;7.07;;;30.30;63.00;;;;;;5048964;28;20025;-54
2023/06/26 12:31:49;;;;;;;15.10;6.32;;;30.20;63.00;;;;;;5032409;28;20034;-54
2023/06/26 12:34:18;;;;;;;14.23;6.45;;;30.30;63.10;;;;;;5044500;28;20109;-53
2023/06/26 12:36:50;;;;;;;26.80;6.45;;;30.30;63.10;;;;;;5027807;28;20119;-54
2023/06/26 12:39:20;;;;;;;25.55;6.70;;;30.30;63.00;;;;;;5056264;28;20114;-54